createdAt,value
2018-08-13T00:01:11.839Z,3.50
2018-08-13T00:03:39.933Z,3.83
2018-08-13T00:06:08.070Z,3.70
2018-08-13T00:08:36.200Z,4.03
2018-08-13T00:11:04.340Z,3.50
2018-08-13T00:13:32.465Z,3.50
2018-08-13T00:16:00.574Z,3.70
2018-08-13T00:18:28.747Z,2.90
2018-08-13T00:20:56.893Z,3.40
2018-08-13T00:23:24.992Z,3.30
2018-08-13T00:25:53.104Z,3.03
2018-08-13T00:28:21.227Z,3.07
2018-08-13T00:30:49.306Z,2.93
2018-08-13T00:33:17.390Z,2.93
2018-08-13T00:35:45.500Z,2.80
2018-08-13T00:38:13.576Z,3.00
2018-08-13T00:40:41.674Z,2.90
2018-08-13T00:43:09.836Z,3.10
2018-08-13T00:45:37.982Z,3.67
2018-08-13T00:48:06.527Z,3.47
2018-08-13T00:50:34.669Z,3.00
2018-08-13T00:53:02.796Z,3.30
2018-08-13T00:55:30.919Z,3.47
2018-08-13T00:57:59.014Z,3.13
2018-08-13T01:00:27.302Z,2.97
2018-08-13T01:02:55.445Z,2.83
2018-08-13T01:05:23.596Z,2.80
2018-08-13T01:07:51.673Z,2.73
2018-08-13T01:10:21.037Z,3.00
2018-08-13T01:12:49.177Z,2.90
2018-08-13T01:15:18.305Z,2.73
2018-08-13T01:17:47.570Z,2.70
2018-08-13T01:20:16.863Z,2.60
2018-08-13T01:22:44.990Z,3.00
2018-08-13T01:25:14.612Z,2.70
2018-08-13T01:27:43.345Z,2.23
2018-08-13T01:30:13.005Z,2.70
2018-08-13T01:32:41.171Z,2.60
2018-08-13T01:35:09.302Z,2.53
2018-08-13T01:37:37.424Z,2.30
2018-08-13T01:40:07.595Z,2.40
2018-08-13T01:42:35.892Z,2.63
2018-08-13T01:45:04.660Z,2.53
2018-08-13T01:47:32.810Z,2.50
2018-08-13T01:50:01.102Z,2.70
2018-08-13T01:52:29.246Z,2.50
2018-08-13T01:54:57.362Z,2.40
2018-08-13T01:57:25.496Z,2.50
2018-08-13T01:59:53.612Z,2.30
2018-08-13T02:02:21.740Z,2.20
2018-08-13T02:04:49.833Z,2.20
2018-08-13T02:07:17.921Z,2.20
2018-08-13T02:09:46.039Z,2.50
2018-08-13T02:12:14.147Z,2.40
2018-08-13T02:14:42.286Z,2.33
2018-08-13T02:17:10.410Z,2.80
2018-08-13T02:19:38.520Z,2.63
2018-08-13T02:22:06.651Z,2.50
2018-08-13T02:24:34.795Z,2.20
2018-08-13T02:27:02.882Z,2.77
2018-08-13T02:29:31.018Z,2.10
2018-08-13T02:31:59.126Z,2.60
2018-08-13T02:34:27.347Z,2.60
2018-08-13T02:36:55.488Z,2.53
2018-08-13T02:39:23.616Z,2.50
2018-08-13T02:41:51.737Z,2.80
2018-08-13T02:44:19.876Z,2.33
2018-08-13T02:46:48.023Z,2.70
2018-08-13T02:49:16.120Z,2.50
2018-08-13T02:51:44.213Z,2.43
2018-08-13T02:54:12.325Z,2.60
2018-08-13T02:56:41.287Z,2.47
2018-08-13T02:59:09.408Z,2.60
2018-08-13T03:01:37.560Z,2.50
2018-08-13T03:04:05.694Z,2.53
2018-08-13T03:06:33.873Z,2.53
2018-08-13T03:09:02.013Z,2.70
2018-08-13T03:11:30.124Z,2.60
2018-08-13T03:13:58.296Z,2.20
2018-08-13T03:16:26.432Z,2.70
2018-08-13T03:18:54.574Z,2.60
2018-08-13T03:21:22.684Z,2.63
2018-08-13T03:23:50.790Z,2.63
2018-08-13T03:26:18.974Z,2.70
2018-08-13T03:28:47.078Z,2.93
2018-08-13T03:31:15.276Z,2.90
2018-08-13T03:33:43.416Z,2.60
2018-08-13T03:36:11.605Z,2.70
2018-08-13T03:38:39.782Z,2.77
2018-08-13T03:41:07.963Z,2.37
2018-08-13T03:43:36.180Z,2.63
2018-08-13T03:46:04.339Z,2.70
2018-08-13T03:48:32.493Z,2.47
2018-08-13T03:51:00.694Z,2.50
2018-08-13T03:53:28.866Z,2.30
2018-08-13T03:55:57.037Z,2.33
2018-08-13T03:58:25.122Z,2.90
2018-08-13T04:00:53.251Z,2.80
2018-08-13T04:03:21.390Z,2.60
2018-08-13T04:05:49.545Z,2.67
2018-08-13T04:08:17.659Z,2.67
2018-08-13T04:10:45.819Z,2.90
2018-08-13T04:13:13.952Z,2.57
2018-08-13T04:15:42.298Z,2.97
2018-08-13T04:18:10.471Z,2.77
2018-08-13T04:20:38.567Z,4.67
2018-08-13T04:23:06.717Z,4.87
2018-08-13T04:25:34.852Z,2.60
2018-08-13T04:28:02.983Z,3.10
2018-08-13T04:30:31.531Z,2.80
2018-08-13T04:32:59.783Z,3.20
2018-08-13T04:35:27.905Z,3.13
2018-08-13T04:37:56.006Z,3.20
2018-08-13T04:40:24.134Z,3.10
2018-08-13T04:42:52.233Z,2.87
2018-08-13T04:45:20.401Z,3.00
2018-08-13T04:47:49.929Z,3.10
2018-08-13T04:50:18.184Z,3.20
2018-08-13T04:52:46.307Z,3.17
2018-08-13T04:55:14.778Z,3.00
2018-08-13T04:57:43.008Z,2.80
2018-08-13T05:00:11.152Z,3.10
2018-08-13T05:02:39.475Z,2.80
2018-08-13T05:05:08.681Z,3.20
2018-08-13T05:07:36.799Z,2.73
2018-08-13T05:10:06.064Z,2.90
2018-08-13T05:12:34.152Z,2.90
2018-08-13T05:15:02.283Z,3.07
2018-08-13T05:17:30.708Z,2.93
2018-08-13T05:19:58.772Z,2.70
2018-08-13T05:22:27.062Z,3.17
2018-08-13T05:24:55.198Z,2.60
2018-08-13T05:27:23.320Z,3.00
2018-08-13T05:29:51.417Z,2.53
2018-08-13T05:32:19.554Z,2.70
2018-08-13T05:34:52.675Z,2.60
2018-08-13T05:37:20.802Z,2.93
2018-08-13T05:39:48.935Z,2.53
2018-08-13T05:42:17.052Z,3.07
2018-08-13T05:44:45.165Z,2.70
2018-08-13T05:47:13.312Z,2.90
2018-08-13T05:49:41.450Z,2.93
2018-08-13T05:52:09.613Z,2.77
2018-08-13T05:54:37.759Z,2.70
2018-08-13T05:57:05.930Z,2.57
2018-08-13T05:59:34.106Z,2.60
2018-08-13T06:02:02.504Z,2.80
2018-08-13T06:04:30.667Z,2.60
2018-08-13T06:06:58.826Z,2.93
2018-08-13T06:09:26.952Z,2.60
2018-08-13T06:11:55.112Z,2.70
2018-08-13T06:14:23.264Z,2.93
2018-08-13T06:16:51.470Z,2.97
2018-08-13T06:19:19.598Z,2.87
2018-08-13T06:21:47.942Z,3.20
2018-08-13T06:24:16.132Z,2.90
2018-08-13T06:26:44.215Z,3.10
2018-08-13T06:29:12.414Z,2.97
2018-08-13T06:31:40.583Z,2.77
2018-08-13T06:34:09.020Z,2.83
2018-08-13T06:36:37.230Z,3.23
2018-08-13T06:39:08.044Z,3.13
2018-08-13T06:41:36.147Z,3.17
2018-08-13T06:44:04.305Z,3.13
2018-08-13T06:46:32.437Z,2.90
2018-08-13T06:49:00.553Z,2.90
2018-08-13T06:51:28.727Z,3.00
2018-08-13T06:53:56.914Z,3.13
2018-08-13T06:56:25.102Z,2.80
2018-08-13T06:58:53.240Z,2.67
2018-08-13T07:01:21.388Z,2.77
2018-08-13T07:03:49.511Z,3.03
2018-08-13T07:06:17.663Z,2.80
2018-08-13T07:08:45.844Z,3.20
2018-08-13T07:11:14.223Z,3.20
2018-08-13T07:13:42.384Z,3.10
2018-08-13T07:16:10.568Z,3.07
2018-08-13T07:18:38.668Z,3.10
2018-08-13T07:21:06.817Z,3.30
2018-08-13T07:23:35.030Z,2.93
2018-08-13T07:26:03.143Z,3.60
2018-08-13T07:28:33.069Z,2.70
2018-08-13T07:31:01.336Z,3.80
2018-08-13T07:33:29.513Z,3.00
2018-08-13T07:35:57.673Z,2.70
2018-08-13T07:38:25.823Z,2.80
2018-08-13T07:40:53.972Z,3.00
2018-08-13T07:43:22.117Z,3.10
2018-08-13T07:45:50.255Z,2.70
2018-08-13T07:48:18.387Z,2.70
2018-08-13T07:50:46.490Z,3.00
2018-08-13T07:53:14.596Z,2.80
2018-08-13T07:55:42.736Z,2.80
2018-08-13T07:58:10.840Z,2.87
2018-08-13T08:00:38.954Z,3.27
2018-08-13T08:03:07.055Z,2.47
2018-08-13T08:05:35.223Z,2.80
2018-08-13T08:08:03.428Z,2.60
2018-08-13T08:10:31.705Z,3.10
2018-08-13T08:12:59.900Z,2.63
2018-08-13T08:15:28.116Z,2.90
2018-08-13T08:17:56.226Z,2.90
2018-08-13T08:20:24.411Z,2.70
2018-08-13T08:22:53.009Z,2.60
2018-08-13T08:25:22.138Z,2.60
2018-08-13T08:27:51.092Z,2.73
2018-08-13T08:30:20.169Z,3.07
2018-08-13T08:32:48.308Z,2.83
2018-08-13T08:35:17.434Z,2.27
2018-08-13T08:37:45.767Z,2.60
2018-08-13T08:40:16.195Z,2.60
2018-08-13T08:42:51.097Z,2.37
2018-08-13T08:45:24.094Z,2.50
2018-08-13T08:47:53.186Z,2.50
2018-08-13T08:50:21.285Z,2.33
2018-08-13T08:52:49.546Z,2.20
2018-08-13T08:55:18.402Z,2.60
2018-08-13T08:57:47.278Z,2.53
2018-08-13T09:00:21.158Z,2.47
2018-08-13T09:02:50.230Z,2.00
2018-08-13T09:05:18.380Z,2.20
2018-08-13T09:07:46.819Z,1.80
2018-08-13T09:10:15.051Z,1.93
2018-08-13T09:12:43.181Z,1.93
2018-08-13T09:15:15.041Z,1.90
2018-08-13T09:17:55.098Z,2.23
2018-08-13T09:20:34.536Z,1.95
2018-08-13T09:23:14.148Z,2.20
2018-08-13T09:25:53.726Z,1.95
2018-08-13T09:28:33.177Z,1.87
2018-08-13T09:31:12.791Z,1.70
2018-08-13T09:33:52.474Z,1.75
2018-08-13T09:36:20.550Z,1.80
2018-08-13T09:38:48.733Z,1.92
2018-08-13T09:41:16.851Z,1.70
2018-08-13T09:43:45.102Z,2.20
2018-08-13T09:46:13.194Z,2.00
2018-08-13T09:48:41.266Z,2.15
2018-08-13T09:51:09.592Z,1.92
2018-08-13T09:53:37.776Z,1.92
2018-08-13T09:56:06.078Z,1.90
2018-08-13T09:58:34.189Z,1.90
2018-08-13T10:01:11.651Z,1.90
2018-08-13T10:03:40.133Z,1.80
2018-08-13T10:06:08.311Z,1.82
2018-08-13T10:08:43.054Z,2.08
2018-08-13T10:11:11.159Z,1.85
2018-08-13T10:13:39.257Z,1.85
2018-08-13T10:16:07.508Z,1.70
2018-08-13T10:18:35.654Z,1.60
2018-08-13T10:21:03.846Z,2.10
2018-08-13T10:23:31.945Z,1.92
2018-08-13T10:26:00.066Z,1.62
2018-08-13T10:28:28.180Z,2.02
2018-08-13T10:30:56.338Z,2.50
2018-08-13T10:33:24.555Z,2.45
2018-08-13T10:35:52.693Z,1.72
2018-08-13T10:38:20.816Z,1.85
2018-08-13T10:40:49.134Z,1.90
2018-08-13T10:43:17.569Z,2.00
2018-08-13T10:45:45.722Z,1.87
2018-08-13T10:48:13.920Z,1.92
2018-08-13T10:50:42.051Z,1.75
2018-08-13T10:53:10.142Z,1.72
2018-08-13T10:55:38.250Z,1.80
2018-08-13T10:58:06.633Z,1.75
2018-08-13T11:00:34.839Z,2.20
2018-08-13T11:03:03.009Z,1.90
2018-08-13T11:05:31.079Z,1.87
2018-08-13T11:07:59.160Z,1.80
2018-08-13T11:10:27.313Z,2.15
2018-08-13T11:12:55.361Z,1.80
2018-08-13T11:15:23.519Z,4.03
2018-08-13T11:17:51.638Z,2.17
2018-08-13T11:20:19.734Z,1.90
2018-08-13T11:22:47.821Z,1.95
2018-08-13T11:25:16.339Z,2.17
2018-08-13T11:27:44.651Z,1.87
2018-08-13T11:30:13.850Z,1.75
2018-08-13T11:32:42.020Z,1.67
2018-08-13T11:35:10.327Z,1.98
2018-08-13T11:37:38.483Z,1.60
2018-08-13T11:40:11.815Z,1.70
2018-08-13T11:42:40.198Z,1.90
2018-08-13T11:45:08.884Z,2.05
2018-08-13T11:47:37.813Z,1.77
2018-08-13T11:50:09.833Z,1.98
2018-08-13T11:52:37.965Z,1.45
2018-08-13T11:55:06.095Z,2.10
2018-08-13T11:57:34.774Z,2.00
2018-08-13T12:00:04.531Z,2.15
2018-08-13T12:02:32.694Z,2.08
2018-08-13T12:05:00.922Z,2.08
2018-08-13T12:07:29.116Z,2.10
2018-08-13T12:09:57.484Z,1.90
2018-08-13T12:12:25.606Z,1.80
2018-08-13T12:14:53.719Z,1.98
2018-08-13T12:17:21.810Z,1.77
2018-08-13T12:19:49.918Z,2.20
2018-08-13T12:22:18.086Z,1.75
2018-08-13T12:24:46.271Z,1.87
2018-08-13T12:27:14.493Z,2.00
2018-08-13T12:29:42.563Z,2.00
2018-08-13T12:32:10.816Z,1.90
2018-08-13T12:34:39.146Z,1.85
2018-08-13T12:37:08.771Z,2.00
2018-08-13T12:39:37.722Z,2.10
2018-08-13T12:42:06.290Z,2.58
2018-08-13T12:44:34.619Z,2.20
2018-08-13T12:47:02.748Z,1.80
2018-08-13T12:49:30.876Z,1.90
2018-08-13T12:51:59.040Z,2.15
2018-08-13T12:54:27.182Z,1.70
2018-08-13T12:56:55.292Z,2.50
2018-08-13T12:59:23.415Z,1.52
2018-08-13T13:01:51.499Z,2.17
2018-08-13T13:04:19.607Z,1.70
2018-08-13T13:06:47.782Z,1.90
2018-08-13T13:09:15.895Z,1.90
2018-08-13T13:11:44.064Z,2.12
2018-08-13T13:14:12.218Z,1.98
2018-08-13T13:16:40.314Z,1.90
2018-08-13T13:19:08.893Z,1.90
2018-08-13T13:21:37.052Z,2.40
2018-08-13T13:24:05.447Z,2.20
2018-08-13T13:26:33.788Z,2.45
2018-08-13T13:29:02.071Z,1.70
2018-08-13T13:31:30.226Z,1.82
2018-08-13T13:33:58.383Z,1.80
2018-08-13T13:36:26.581Z,1.90
2018-08-13T13:38:54.721Z,2.10
2018-08-13T13:41:23.215Z,1.87
2018-08-13T13:43:51.455Z,2.10
2018-08-13T13:46:19.740Z,1.70
2018-08-13T13:48:47.858Z,2.12
2018-08-13T13:51:15.951Z,2.15
2018-08-13T13:53:44.150Z,2.00
2018-08-13T13:56:12.255Z,1.90
2018-08-13T13:58:40.388Z,1.62
2018-08-13T14:01:13.476Z,2.00
2018-08-13T14:03:41.585Z,1.90
2018-08-13T14:06:09.706Z,1.80
2018-08-13T14:08:37.878Z,2.00
2018-08-13T14:11:05.984Z,2.10
2018-08-13T14:13:34.179Z,2.17
2018-08-13T14:16:02.289Z,1.90
2018-08-13T14:18:30.497Z,2.10
2018-08-13T14:20:58.662Z,2.15
2018-08-13T14:23:27.850Z,1.92
2018-08-13T14:25:55.999Z,1.82
2018-08-13T14:28:24.115Z,2.42
2018-08-13T14:30:52.229Z,2.05
2018-08-13T14:33:20.354Z,1.60
2018-08-13T14:35:48.483Z,1.82
2018-08-13T14:38:16.595Z,1.80
2018-08-13T14:40:44.711Z,2.00
2018-08-13T14:43:12.889Z,1.70
2018-08-13T14:45:41.302Z,1.98
2018-08-13T14:48:09.481Z,1.70
2018-08-13T14:50:37.642Z,1.90
2018-08-13T14:53:05.777Z,1.77
2018-08-13T14:55:33.919Z,1.80
2018-08-13T14:58:02.054Z,1.95
2018-08-13T15:00:32.011Z,2.17
2018-08-13T15:03:00.111Z,2.35
2018-08-13T15:05:28.255Z,2.15
2018-08-13T15:07:56.385Z,2.47
2018-08-13T15:10:25.301Z,2.00
2018-08-13T15:12:53.490Z,2.08
2018-08-13T15:15:21.645Z,2.00
2018-08-13T15:17:49.740Z,2.30
2018-08-13T15:20:23.694Z,2.15
2018-08-13T15:22:51.844Z,2.30
2018-08-13T15:25:23.518Z,2.00
2018-08-13T15:27:54.014Z,2.75
2018-08-13T15:30:22.748Z,2.05
2018-08-13T15:32:51.605Z,2.08
2018-08-13T15:35:19.806Z,2.10
2018-08-13T15:37:48.433Z,2.30
2018-08-13T15:40:16.562Z,2.20
2018-08-13T15:42:44.749Z,2.10
2018-08-13T15:45:15.751Z,1.80
2018-08-13T15:47:43.862Z,2.17
2018-08-13T15:50:13.675Z,2.98
2018-08-13T15:52:41.958Z,2.20
2018-08-13T15:55:10.081Z,2.17
2018-08-13T15:57:38.213Z,2.00
2018-08-13T16:00:07.640Z,1.80
2018-08-13T16:02:36.401Z,2.10
2018-08-13T16:05:06.007Z,1.90
2018-08-13T16:07:39.583Z,2.10
2018-08-13T16:10:11.034Z,2.40
2018-08-13T16:12:39.284Z,2.13
2018-08-13T16:15:07.942Z,1.87
2018-08-13T16:17:36.473Z,2.00
2018-08-13T16:20:06.747Z,1.70
2018-08-13T16:22:34.880Z,1.80
2018-08-13T16:25:03.071Z,1.80
2018-08-13T16:27:31.222Z,2.07
2018-08-13T16:29:59.437Z,1.80
2018-08-13T16:32:27.670Z,1.80
2018-08-13T16:34:55.825Z,1.90
2018-08-13T16:37:23.943Z,2.13
2018-08-13T16:39:52.086Z,2.13
2018-08-13T16:42:20.225Z,1.90
2018-08-13T16:44:48.334Z,2.00
2018-08-13T16:47:16.470Z,1.80
2018-08-13T16:49:44.595Z,2.37
2018-08-13T16:52:12.669Z,1.70
2018-08-13T16:54:40.828Z,1.97
2018-08-13T16:57:08.945Z,1.97
2018-08-13T16:59:37.099Z,2.00
2018-08-13T17:02:05.230Z,2.53
2018-08-13T17:04:40.190Z,2.00
2018-08-13T17:07:08.369Z,1.70
2018-08-13T17:09:36.540Z,2.27
2018-08-13T17:12:04.722Z,2.10
2018-08-13T17:14:33.104Z,2.10
2018-08-13T17:17:01.133Z,2.27
2018-08-13T17:19:29.251Z,2.03
2018-08-13T17:21:57.385Z,2.03
2018-08-13T17:24:25.713Z,2.10
2018-08-13T17:26:54.002Z,1.97
2018-08-13T17:29:22.251Z,2.60
2018-08-13T17:31:50.323Z,2.13
2018-08-13T17:34:18.424Z,2.20
2018-08-13T17:36:46.570Z,2.00
2018-08-13T17:39:15.102Z,2.83
2018-08-13T17:41:43.308Z,2.00
2018-08-13T17:44:11.409Z,1.93
2018-08-13T17:46:39.639Z,1.83
2018-08-13T17:49:14.518Z,1.90
2018-08-13T17:51:42.677Z,2.00
2018-08-13T17:54:10.760Z,2.33
2018-08-13T17:56:38.884Z,2.00
2018-08-13T17:59:07.898Z,1.70
2018-08-13T18:01:36.091Z,1.80
2018-08-13T18:04:04.276Z,2.07
2018-08-13T18:06:32.769Z,1.90
2018-08-13T18:09:00.859Z,1.87
2018-08-13T18:11:29.192Z,2.00
2018-08-13T18:13:57.419Z,1.80
2018-08-13T18:16:26.539Z,1.77
2018-08-13T18:18:54.701Z,1.73
2018-08-13T18:21:22.924Z,2.47
2018-08-13T18:23:51.007Z,2.03
2018-08-13T18:26:19.135Z,2.73
2018-08-13T18:28:47.278Z,2.33
2018-08-13T18:31:15.397Z,2.33
2018-08-13T18:33:43.507Z,2.30
2018-08-13T18:36:11.902Z,2.33
2018-08-13T18:38:40.095Z,2.20
2018-08-13T18:41:08.294Z,2.40
2018-08-13T18:43:36.464Z,2.20
2018-08-13T18:46:04.652Z,2.33
2018-08-13T18:48:32.820Z,2.03
2018-08-13T18:51:01.199Z,2.07
2018-08-13T18:53:29.607Z,2.20
2018-08-13T18:55:57.762Z,2.07
2018-08-13T18:58:25.878Z,2.17
2018-08-13T19:00:55.679Z,2.60
2018-08-13T19:03:25.705Z,2.40
2018-08-13T19:05:57.135Z,2.00
2018-08-13T19:08:25.232Z,2.00
2018-08-13T19:10:53.374Z,2.10
2018-08-13T19:13:21.568Z,2.00
2018-08-13T19:15:49.724Z,1.97
2018-08-13T19:18:17.923Z,2.37
2018-08-13T19:20:46.049Z,2.00
2018-08-13T19:23:14.201Z,2.60
2018-08-13T19:25:42.352Z,2.20
2018-08-13T19:28:10.617Z,2.57
2018-08-13T19:30:38.730Z,2.40
2018-08-13T19:33:06.918Z,2.40
2018-08-13T19:35:35.345Z,2.20
2018-08-13T19:38:03.965Z,2.13
2018-08-13T19:40:32.216Z,2.40
2018-08-13T19:43:01.211Z,2.50
2018-08-13T19:45:29.601Z,2.40
2018-08-13T19:47:58.523Z,2.70
2018-08-13T19:50:27.477Z,4.07
2018-08-13T19:52:55.907Z,2.60
2018-08-13T19:55:25.031Z,2.70
2018-08-13T19:57:53.452Z,2.20
2018-08-13T20:00:25.645Z,2.37
2018-08-13T20:02:54.147Z,2.70
2018-08-13T20:05:23.604Z,2.80
2018-08-13T20:07:52.223Z,2.63
2018-08-13T20:10:20.357Z,2.10
2018-08-13T20:12:48.748Z,2.60
2018-08-13T20:15:16.848Z,3.00
2018-08-13T20:17:45.288Z,2.80
2018-08-13T20:20:15.227Z,2.57
2018-08-13T20:22:44.349Z,2.53
2018-08-13T20:25:13.858Z,2.50
2018-08-13T20:27:42.352Z,2.80
2018-08-13T20:30:12.769Z,2.30
2018-08-13T20:32:41.228Z,2.83
2018-08-13T20:35:09.516Z,2.90
2018-08-13T20:37:37.715Z,3.10
2018-08-13T20:40:07.766Z,3.10
2018-08-13T20:42:35.902Z,2.53
2018-08-13T20:45:05.224Z,2.97
2018-08-13T20:47:33.314Z,2.70
2018-08-13T20:50:01.439Z,2.93
2018-08-13T20:52:29.806Z,3.10
2018-08-13T20:54:58.230Z,3.33
2018-08-13T20:57:26.495Z,2.90
2018-08-13T20:59:55.272Z,3.40
2018-08-13T21:02:23.508Z,3.00
2018-08-13T21:04:51.853Z,3.00
2018-08-13T21:07:20.052Z,3.10
2018-08-13T21:09:49.114Z,2.97
2018-08-13T21:12:17.454Z,3.00
2018-08-13T21:14:45.562Z,3.30
2018-08-13T21:17:14.190Z,3.60
2018-08-13T21:19:42.321Z,3.17
2018-08-13T21:22:10.639Z,3.07
2018-08-13T21:24:40.325Z,3.03
2018-08-13T21:27:08.470Z,3.20
2018-08-13T21:29:36.736Z,3.60
2018-08-13T21:32:04.885Z,3.47
2018-08-13T21:34:33.011Z,3.20
2018-08-13T21:37:01.219Z,3.50
2018-08-13T21:39:29.337Z,3.70
2018-08-13T21:41:57.461Z,3.40
2018-08-13T21:44:25.562Z,3.60
2018-08-13T21:46:53.682Z,3.50
2018-08-13T21:49:21.835Z,3.10
2018-08-13T21:51:50.028Z,3.30
2018-08-13T21:54:18.218Z,3.40
2018-08-13T21:56:46.300Z,3.20
2018-08-13T21:59:14.389Z,3.90
2018-08-13T22:01:46.129Z,3.43
2018-08-13T22:04:15.407Z,3.10
2018-08-13T22:06:43.865Z,3.00
2018-08-13T22:09:12.163Z,2.80
2018-08-13T22:11:40.271Z,3.20
2018-08-13T22:14:09.725Z,3.07
2018-08-13T22:16:37.803Z,3.30
2018-08-13T22:19:06.231Z,3.00
2018-08-13T22:21:34.450Z,2.90
2018-08-13T22:24:14.187Z,3.40
2018-08-13T22:26:42.347Z,3.13
2018-08-13T22:29:10.447Z,3.20
2018-08-13T22:31:38.550Z,3.33
2018-08-13T22:34:07.463Z,3.20
2018-08-13T22:36:35.569Z,3.30
2018-08-13T22:39:05.512Z,3.17
2018-08-13T22:41:33.745Z,3.30
2018-08-13T22:44:01.906Z,2.83
2018-08-13T22:46:30.095Z,3.37
2018-08-13T22:48:58.307Z,3.17
2018-08-13T22:51:26.416Z,3.30
2018-08-13T22:53:54.515Z,3.20
2018-08-13T22:56:22.649Z,3.27
2018-08-13T22:58:50.734Z,3.10
2018-08-13T23:01:18.831Z,3.10
2018-08-13T23:03:46.924Z,3.40
2018-08-13T23:06:15.182Z,3.20
2018-08-13T23:08:43.315Z,3.07
2018-08-13T23:11:11.438Z,3.40
2018-08-13T23:13:39.511Z,3.27
2018-08-13T23:16:07.662Z,3.13
2018-08-13T23:18:35.817Z,3.00
2018-08-13T23:21:03.959Z,2.90
2018-08-13T23:23:32.133Z,2.87
2018-08-13T23:26:00.227Z,3.00
2018-08-13T23:28:28.348Z,3.30
2018-08-13T23:30:56.453Z,3.00
2018-08-13T23:33:24.586Z,3.60
2018-08-13T23:35:52.737Z,3.10
2018-08-13T23:38:20.820Z,2.90
2018-08-13T23:40:48.966Z,3.00
2018-08-13T23:43:17.088Z,3.37
2018-08-13T23:45:45.212Z,3.37
2018-08-13T23:48:13.315Z,3.23
2018-08-13T23:50:41.459Z,3.43
2018-08-13T23:53:09.549Z,3.20
2018-08-13T23:55:39.029Z,3.50
2018-08-13T23:58:10.095Z,3.40
